Time;durP1;ratioP1;P1;durP2;ratioP2;P2;SDS_P1;SDS_P2;PMS_P1;PMS_P2;Temp;Humidity;BMP_temperature;BMP_pressure;BME280_temperature;BME280_humidity;BME280_pressure;Samples;Min_cycle;Max_cycle;Signal;HPM_P1;HPM_P2
2023/03/02 00:01:45;;;;;;;7.30;1.00;;;;;;;;;;105224;1253;61867;-48
2023/03/02 00:04:20;;;;;;;4.50;1.20;;;;;;;;;;106017;1254;60883;-51
2023/03/02 00:06:49;;;;;;;6.00;1.00;;;;;;;;;;105294;1252;60420;-48
2023/03/02 00:09:17;;;;;;;4.00;0.80;;;;;;;;;;105145;1256;60517;-49
2023/03/02 00:11:44;;;;;;;4.10;1.00;;;;;;;;;;105287;1253;62174;-49
2023/03/02 00:14:16;;;;;;;3.50;0.90;;;;;;;;;;109371;1251;58614;-50
2023/03/02 00:16:44;;;;;;;5.50;1.20;;;;;;;;;;105212;1254;60793;-49
2023/03/02 00:19:12;;;;;;;5.10;1.10;;;;;;;;;;105237;1251;60503;-48
2023/03/02 00:21:40;;;;;;;4.40;1.00;;;;;;;;;;105256;1254;60331;-48
2023/03/02 00:24:08;;;;;;;4.90;1.40;;;;;;;;;;105830;1254;60645;-49
2023/03/02 00:26:36;;;;;;;4.80;1.20;;;;;;;;;;105543;1254;60419;-48
2023/03/02 00:29:04;;;;;;;3.30;1.60;;;;;;;;;;105338;1250;60733;-49
2023/03/02 00:31:32;;;;;;;10.10;1.00;;;;;;;;;;109242;1250;60460;-50
2023/03/02 00:34:01;;;;;;;5.00;1.10;;;;;;;;;;105823;1251;60434;-47
2023/03/02 00:36:29;;;;;;;6.50;1.20;;;;;;;;;;105139;1253;61322;-47
2023/03/02 00:38:58;;;;;;;4.40;1.00;;;;;;;;;;105176;1251;60447;-49
2023/03/02 00:41:26;;;;;;;5.00;1.10;;;;;;;;;;105188;1253;61028;-49
2023/03/02 00:43:54;;;;;;;4.50;1.00;;;;;;;;;;105127;1257;60443;-48
2023/03/02 00:46:23;;;;;;;5.00;0.90;;;;;;;;;;105836;1254;60423;-50
2023/03/02 00:48:55;;;;;;;4.80;1.40;;;;;;;;;;106037;1251;60951;-50
2023/03/02 00:51:25;;;;;;;4.30;0.80;;;;;;;;;;106136;1253;61187;-49
2023/03/02 00:53:54;;;;;;;2.30;1.20;;;;;;;;;;105235;1251;60590;-48
2023/03/02 00:56:22;;;;;;;3.80;1.30;;;;;;;;;;105097;1253;60576;-49
2023/03/02 00:58:51;;;;;;;4.20;1.00;;;;;;;;;;105238;1251;60393;-49
2023/03/02 01:01:19;;;;;;;6.60;2.30;;;;;;;;;;106152;1251;62326;-49
2023/03/02 01:03:49;;;;;;;4.90;1.40;;;;;;;;;;106161;1254;60415;-47
2023/03/02 01:06:18;;;;;;;9.30;1.90;;;;;;;;;;105364;1257;61368;-48
2023/03/02 01:08:47;;;;;;;9.40;2.40;;;;;;;;;;106866;1251;60635;-48
2023/03/02 01:11:15;;;;;;;8.30;2.20;;;;;;;;;;107958;1251;58500;-48
2023/03/02 01:13:43;;;;;;;6.80;2.60;;;;;;;;;;106809;1249;61853;-48
2023/03/02 01:16:11;;;;;;;8.30;2.30;;;;;;;;;;106446;1251;59286;-46
2023/03/02 01:18:42;;;;;;;7.00;1.80;;;;;;;;;;105362;1254;60795;-47
2023/03/02 01:21:11;;;;;;;7.40;2.10;;;;;;;;;;105391;1253;60410;-47
2023/03/02 01:23:39;;;;;;;7.10;2.30;;;;;;;;;;105880;1251;60411;-48
2023/03/02 01:26:07;;;;;;;4.10;1.40;;;;;;;;;;107094;1251;62081;-47
2023/03/02 01:28:35;;;;;;;8.90;1.80;;;;;;;;;;105481;1252;60397;-48
2023/03/02 01:31:04;;;;;;;3.20;1.00;;;;;;;;;;105757;1251;60607;-48
2023/03/02 01:33:32;;;;;;;7.20;1.20;;;;;;;;;;106062;1254;60530;-48
2023/03/02 01:36:01;;;;;;;4.50;1.30;;;;;;;;;;105941;1251;60561;-46
2023/03/02 01:38:29;;;;;;;5.50;1.60;;;;;;;;;;108001;1251;62177;-47
2023/03/02 01:40:57;;;;;;;4.00;1.20;;;;;;;;;;105414;1254;61120;-46
2023/03/02 01:43:25;;;;;;;6.00;1.40;;;;;;;;;;105577;1251;60771;-47
2023/03/02 01:45:54;;;;;;;5.70;1.50;;;;;;;;;;105374;1251;60643;-46
2023/03/02 01:48:36;;;;;;;4.10;1.50;;;;;;;;;;105640;1253;60428;-48
2023/03/02 01:51:04;;;;;;;5.00;1.90;;;;;;;;;;109242;1251;62371;-47
2023/03/02 01:53:35;;;;;;;5.80;1.30;;;;;;;;;;107669;1254;60430;-48
2023/03/02 01:56:04;;;;;;;7.40;1.10;;;;;;;;;;109219;1249;60467;-48
2023/03/02 01:58:34;;;;;;;6.70;1.70;;;;;;;;;;107943;1250;59039;-47
2023/03/02 02:01:03;;;;;;;3.00;1.60;;;;;;;;;;105244;1254;60360;-47
2023/03/02 02:03:31;;;;;;;4.40;1.30;;;;;;;;;;106040;1256;60842;-46
2023/03/02 02:06:02;;;;;;;4.50;1.60;;;;;;;;;;105510;1251;60476;-48
2023/03/02 02:08:30;;;;;;;6.30;1.50;;;;;;;;;;106148;1250;60799;-45
2023/03/02 02:10:58;;;;;;;8.90;1.90;;;;;;;;;;104984;1254;60527;-48
2023/03/02 02:13:27;;;;;;;4.10;1.50;;;;;;;;;;105264;1253;60497;-48
2023/03/02 02:15:55;;;;;;;7.50;2.00;;;;;;;;;;106822;1251;61803;-47
2023/03/02 02:18:24;;;;;;;5.50;1.80;;;;;;;;;;105714;1250;60424;-46
2023/03/02 02:20:53;;;;;;;5.10;1.60;;;;;;;;;;107333;1249;60549;-47
2023/03/02 02:23:28;;;;;;;6.20;1.60;;;;;;;;;;108705;1253;58080;-47
2023/03/02 02:26:23;;;;;;;3.30;1.20;;;;;;;;;;106822;1251;60463;-48
2023/03/02 02:28:56;;;;;;;5.60;1.20;;;;;;;;;;105292;1249;62341;-46
2023/03/02 02:31:29;;;;;;;2.70;1.20;;;;;;;;;;106351;1249;60503;-48
2023/03/02 02:33:59;;;;;;;4.80;1.30;;;;;;;;;;105305;1250;60337;-48
2023/03/02 02:36:33;;;;;;;6.40;1.50;;;;;;;;;;109295;1250;58307;-48
2023/03/02 02:39:04;;;;;;;7.50;1.70;;;;;;;;;;109344;1250;58585;-49
2023/03/02 02:41:33;;;;;;;5.70;1.40;;;;;;;;;;108247;1250;62131;-46
2023/03/02 02:44:03;;;;;;;2.80;1.00;;;;;;;;;;109361;1251;59656;-49
2023/03/02 02:46:32;;;;;;;8.90;1.40;;;;;;;;;;108798;1253;59745;-46
2023/03/02 02:49:02;;;;;;;5.60;1.10;;;;;;;;;;107313;1252;60530;-47
2023/03/02 02:51:32;;;;;;;5.80;1.10;;;;;;;;;;104997;1254;60482;-48
2023/03/02 02:54:00;;;;;;;5.10;0.90;;;;;;;;;;109286;1250;62537;-48
2023/03/02 02:56:33;;;;;;;4.90;0.90;;;;;;;;;;105884;1251;228539;-47
2023/03/02 03:00:28;;;;;;;4.30;0.90;;;;;;;;;;102245;1291;600573;-48
2023/03/02 03:02:57;;;;;;;2.30;0.90;;;;;;;;;;108470;1260;57983;-49
2023/03/02 03:05:25;;;;;;;3.10;0.90;;;;;;;;;;108584;1260;57493;-48
2023/03/02 03:08:05;;;;;;;5.00;2.10;;;;;;;;;;106198;1260;59793;-47
2023/03/02 03:10:35;;;;;;;4.30;0.70;;;;;;;;;;108376;1265;56749;-48
2023/03/02 03:13:02;;;;;;;1.80;0.80;;;;;;;;;;104393;1266;152522;-48
2023/03/02 03:15:30;;;;;;;2.50;0.80;;;;;;;;;;104922;1265;59032;-47
2023/03/02 03:17:58;;;;;;;4.50;0.80;;;;;;;;;;104379;1260;59228;-49
2023/03/02 03:20:28;;;;;;;4.30;1.30;;;;;;;;;;108717;1258;60575;-49
2023/03/02 03:22:58;;;;;;;4.10;0.80;;;;;;;;;;104848;1260;58892;-49
2023/03/02 03:25:27;;;;;;;4.50;1.20;;;;;;;;;;105188;1262;59750;-48
2023/03/02 03:27:55;;;;;;;5.10;1.20;;;;;;;;;;107608;1260;59616;-49
2023/03/02 03:30:23;;;;;;;3.10;1.00;;;;;;;;;;104470;1260;59647;-48
2023/03/02 03:32:52;;;;;;;6.70;1.40;;;;;;;;;;105848;1258;61160;-47
2023/03/02 03:35:21;;;;;;;3.90;1.60;;;;;;;;;;108568;1257;57561;-48
2023/03/02 03:37:50;;;;;;;5.70;1.20;;;;;;;;;;108701;1257;60823;-47
2023/03/02 03:40:26;;;;;;;6.00;1.10;;;;;;;;;;105787;1263;59591;-47
2023/03/02 03:42:54;;;;;;;3.50;1.20;;;;;;;;;;105224;1259;61582;-46
2023/03/02 03:45:22;;;;;;;9.40;1.80;;;;;;;;;;107533;1254;61325;-46
2023/03/02 03:47:49;;;;;;;5.40;1.40;;;;;;;;;;104678;1259;60861;-47
2023/03/02 03:50:18;;;;;;;6.30;1.30;;;;;;;;;;108930;1256;60781;-48
2023/03/02 03:52:47;;;;;;;9.10;1.50;;;;;;;;;;105521;1257;59638;-49
2023/03/02 03:55:21;;;;;;;7.00;1.50;;;;;;;;;;104969;1257;59497;-46
2023/03/02 03:57:50;;;;;;;8.50;1.70;;;;;;;;;;106247;1256;61211;-46
2023/03/02 04:00:18;;;;;;;5.70;1.20;;;;;;;;;;106108;1256;59654;-48
2023/03/02 04:02:49;;;;;;;4.70;1.00;;;;;;;;;;105836;1259;59549;-47
2023/03/02 04:05:18;;;;;;;7.70;1.30;;;;;;;;;;108896;1256;58540;-49
2023/03/02 04:07:49;;;;;;;3.70;1.40;;;;;;;;;;107906;1257;59584;-44
2023/03/02 04:10:17;;;;;;;3.20;1.20;;;;;;;;;;104780;1257;61143;-48
2023/03/02 04:12:47;;;;;;;5.60;2.00;;;;;;;;;;104780;1257;59655;-47
2023/03/02 04:15:16;;;;;;;5.80;1.50;;;;;;;;;;104877;1256;60551;-47
2023/03/02 04:17:45;;;;;;;7.10;1.60;;;;;;;;;;104885;1257;59804;-46
2023/03/02 04:20:15;;;;;;;5.70;1.50;;;;;;;;;;105916;1260;59640;-46
2023/03/02 04:22:47;;;;;;;5.20;1.20;;;;;;;;;;105812;1256;60404;-47
2023/03/02 04:25:18;;;;;;;6.80;1.70;;;;;;;;;;108837;1256;58290;-47
2023/03/02 04:27:47;;;;;;;6.00;1.70;;;;;;;;;;108197;1254;59469;-48
2023/03/02 04:30:16;;;;;;;8.70;2.50;;;;;;;;;;104935;1256;59707;-46
2023/03/02 04:32:45;;;;;;;12.50;4.20;;;;;;;;;;106532;1256;59098;-46
2023/03/02 04:35:13;;;;;;;7.20;2.10;;;;;;;;;;105845;1255;61324;-48
2023/03/02 04:37:42;;;;;;;13.10;3.00;;;;;;;;;;105060;1259;59624;-47
2023/03/02 04:40:10;;;;;;;6.40;2.60;;;;;;;;;;106284;1260;60415;-48
2023/03/02 04:42:45;;;;;;;7.90;2.80;;;;;;;;;;104928;1260;59756;-45
2023/03/02 04:45:13;;;;;;;10.00;3.00;;;;;;;;;;104938;1254;59721;-48
2023/03/02 04:47:41;;;;;;;9.00;2.30;;;;;;;;;;105018;1260;63139;-49
2023/03/02 04:50:13;;;;;;;8.20;2.50;;;;;;;;;;104838;1259;59519;-47
2023/03/02 04:52:41;;;;;;;6.00;1.80;;;;;;;;;;105255;1257;60433;-47
2023/03/02 04:55:12;;;;;;;6.40;2.00;;;;;;;;;;106154;1258;59068;-48
2023/03/02 04:57:40;;;;;;;8.30;2.90;;;;;;;;;;107099;1256;58940;-46
2023/03/02 05:00:08;;;;;;;6.70;1.30;;;;;;;;;;104818;1259;61290;-46
2023/03/02 05:02:36;;;;;;;6.00;1.90;;;;;;;;;;107240;1254;58456;-47
2023/03/02 05:05:06;;;;;;;5.70;1.80;;;;;;;;;;106531;1257;59730;-46
2023/03/02 05:07:34;;;;;;;5.70;1.70;;;;;;;;;;106649;1254;59779;-47
2023/03/02 05:10:03;;;;;;;7.10;1.80;;;;;;;;;;105058;1256;60215;-47
2023/03/02 05:12:53;;;;;;;9.90;1.40;;;;;;;;;;105020;1258;61207;-47
2023/03/02 05:15:27;;;;;;;5.60;1.50;;;;;;;;;;105121;1254;59727;-46
2023/03/02 05:17:55;;;;;;;4.30;1.50;;;;;;;;;;104913;1256;60408;-46
2023/03/02 05:20:26;;;;;;;8.30;2.80;;;;;;;;;;104925;1254;59734;-45
2023/03/02 05:22:59;;;;;;;8.40;1.90;;;;;;;;;;106673;1259;59033;-47
2023/03/02 05:25:27;;;;;;;8.20;1.40;;;;;;;;;;106128;1254;61311;-46
2023/03/02 05:27:56;;;;;;;6.60;1.70;;;;;;;;;;104863;1256;59784;-47
2023/03/02 05:30:24;;;;;;;5.80;1.70;;;;;;;;;;104944;1258;60947;-47
2023/03/02 05:32:52;;;;;;;6.90;1.50;;;;;;;;;;104921;1254;59725;-46
2023/03/02 05:35:20;;;;;;;6.40;1.80;;;;;;;;;;106318;1258;59486;-47
2023/03/02 05:37:48;;;;;;;6.70;1.40;;;;;;;;;;104882;1259;60094;-47
2023/03/02 05:40:18;;;;;;;5.90;1.40;;;;;;;;;;104853;1258;59717;-48
2023/03/02 05:42:47;;;;;;;3.50;1.60;;;;;;;;;;104862;1256;61452;-49
2023/03/02 05:45:18;;;;;;;7.40;1.80;;;;;;;;;;105108;1254;59957;-48
2023/03/02 05:47:47;;;;;;;4.10;1.30;;;;;;;;;;105940;1255;59650;-45
2023/03/02 05:50:15;;;;;;;6.70;1.50;;;;;;;;;;105000;1256;61153;-47
2023/03/02 05:52:45;;;;;;;5.40;1.20;;;;;;;;;;105014;1255;59605;-48
2023/03/02 05:55:13;;;;;;;5.70;1.10;;;;;;;;;;109174;1254;60967;-50
2023/03/02 05:57:41;;;;;;;8.30;1.50;;;;;;;;;;106045;1259;59509;-46
2023/03/02 06:00:10;;;;;;;3.60;1.10;;;;;;;;;;104944;1258;59599;-46
2023/03/02 06:02:41;;;;;;;5.60;1.50;;;;;;;;;;104871;1259;61086;-45
2023/03/02 06:05:10;;;;;;;5.50;1.30;;;;;;;;;;105376;1258;59669;-47
2023/03/02 06:07:38;;;;;;;8.80;1.40;;;;;;;;;;105055;1259;59816;-50
2023/03/02 06:10:08;;;;;;;6.00;1.60;;;;;;;;;;104857;1258;59625;-50
2023/03/02 06:12:36;;;;;;;8.30;1.40;;;;;;;;;;106963;1257;59984;-49
2023/03/02 06:15:06;;;;;;;5.00;1.30;;;;;;;;;;104875;1257;61180;-45
2023/03/02 06:17:35;;;;;;;5.30;1.50;;;;;;;;;;105182;1258;59562;-48
2023/03/02 06:20:12;;;;;;;7.20;1.20;;;;;;;;;;104639;1259;59693;-46
2023/03/02 06:22:41;;;;;;;6.50;1.40;;;;;;;;;;109045;1256;57624;-49
2023/03/02 06:25:10;;;;;;;3.30;1.40;;;;;;;;;;109089;1256;57320;-47
2023/03/02 06:27:38;;;;;;;4.50;1.20;;;;;;;;;;106039;1257;60495;-46
2023/03/02 06:30:07;;;;;;;4.60;1.10;;;;;;;;;;105712;1259;59573;-47
2023/03/02 06:32:35;;;;;;;5.60;1.30;;;;;;;;;;107203;1259;60543;-46
2023/03/02 06:35:04;;;;;;;5.40;1.90;;;;;;;;;;104931;1257;61709;-47
2023/03/02 06:37:32;;;;;;;5.40;1.70;;;;;;;;;;106825;1257;59558;-48
2023/03/02 06:40:00;;;;;;;6.10;2.30;;;;;;;;;;107585;1256;61317;-47
2023/03/02 06:42:28;;;;;;;6.80;1.40;;;;;;;;;;104900;1259;59605;-48
2023/03/02 06:44:57;;;;;;;7.10;2.00;;;;;;;;;;104699;1259;59825;-47
2023/03/02 06:47:26;;;;;;;5.50;2.40;;;;;;;;;;106913;1255;59594;-48
2023/03/02 06:49:54;;;;;;;4.40;1.60;;;;;;;;;;105034;1259;59644;-48
2023/03/02 06:52:22;;;;;;;6.30;2.70;;;;;;;;;;104556;1254;61345;-47
2023/03/02 06:54:50;;;;;;;9.70;2.60;;;;;;;;;;104306;1259;59841;-48
2023/03/02 06:57:17;;;;;;;7.20;2.40;;;;;;;;;;106947;1259;61000;-49
2023/03/02 06:59:45;;;;;;;6.60;2.00;;;;;;;;;;104730;1259;59724;-49
2023/03/02 07:02:17;;;;;;;9.00;2.00;;;;;;;;;;108904;1254;57442;-51
2023/03/02 07:04:45;;;;;;;5.10;1.60;;;;;;;;;;106925;1259;61813;-49
2023/03/02 07:07:13;;;;;;;5.30;1.40;;;;;;;;;;104818;1254;59789;-49
2023/03/02 07:09:41;;;;;;;8.40;2.10;;;;;;;;;;104715;1254;60339;-46
2023/03/02 07:12:09;;;;;;;5.60;1.90;;;;;;;;;;108927;1255;58537;-51
2023/03/02 07:14:40;;;;;;;4.90;2.00;;;;;;;;;;105260;1259;60409;-48
2023/03/02 07:17:08;;;;;;;4.70;1.50;;;;;;;;;;108948;1256;62166;-51
2023/03/02 07:19:37;;;;;;;7.90;1.80;;;;;;;;;;106486;1259;61790;-48
2023/03/02 07:22:09;;;;;;;5.20;1.40;;;;;;;;;;104720;1259;61453;-49
2023/03/02 07:24:38;;;;;;;6.50;1.90;;;;;;;;;;104769;1257;60524;-50
2023/03/02 07:27:06;;;;;;;5.60;1.60;;;;;;;;;;108968;1255;58944;-51
2023/03/02 07:29:34;;;;;;;16.40;2.20;;;;;;;;;;108954;1255;61162;-51
2023/03/02 07:32:02;;;;;;;5.90;1.60;;;;;;;;;;109142;1254;58218;-52
2023/03/02 07:34:30;;;;;;;3.60;1.40;;;;;;;;;;105497;1258;60819;-49
2023/03/02 07:36:58;;;;;;;6.90;1.50;;;;;;;;;;104874;1254;60582;-51
2023/03/02 07:39:26;;;;;;;7.60;1.30;;;;;;;;;;108862;1255;58996;-52
2023/03/02 07:41:56;;;;;;;5.20;1.70;;;;;;;;;;106248;1259;61696;-48
2023/03/02 07:44:24;;;;;;;13.10;2.20;;;;;;;;;;105853;1260;60365;-50
2023/03/02 07:46:52;;;;;;;8.10;3.10;;;;;;;;;;104742;1256;60656;-50
2023/03/02 07:49:20;;;;;;;7.70;2.50;;;;;;;;;;105453;1260;60582;-50
2023/03/02 07:51:48;;;;;;;12.20;2.50;;;;;;;;;;104765;1259;60430;-50
2023/03/02 07:54:16;;;;;;;8.60;2.60;;;;;;;;;;105020;1259;62067;-50
2023/03/02 07:56:44;;;;;;;4.20;1.70;;;;;;;;;;104674;1254;60752;-50
2023/03/02 07:59:12;;;;;;;5.80;1.60;;;;;;;;;;104761;1254;60760;-50
2023/03/02 08:01:40;;;;;;;3.70;1.50;;;;;;;;;;104737;1258;60543;-51
2023/03/02 08:04:10;;;;;;;7.50;2.50;;;;;;;;;;104784;1259;60520;-51
2023/03/02 08:06:40;;;;;;;11.20;3.50;;;;;;;;;;104767;1254;62464;-50
2023/03/02 08:09:09;;;;;;;8.90;2.70;;;;;;;;;;105101;1260;60375;-49
2023/03/02 08:11:37;;;;;;;8.90;3.00;;;;;;;;;;104908;1260;61788;-53
2023/03/02 08:14:06;;;;;;;7.10;1.80;;;;;;;;;;104901;1256;60390;-50
2023/03/02 08:16:34;;;;;;;8.00;3.10;;;;;;;;;;107922;1254;58214;-49
2023/03/02 08:19:02;;;;;;;6.70;2.00;;;;;;;;;;104908;1258;62364;-50
2023/03/02 08:21:30;;;;;;;5.00;2.00;;;;;;;;;;104778;1259;60520;-51
2023/03/02 08:24:01;;;;;;;10.30;1.90;;;;;;;;;;104737;1255;60790;-48
2023/03/02 08:26:28;;;;;;;5.20;1.20;;;;;;;;;;104702;1257;60586;-51
2023/03/02 08:28:57;;;;;;;3.70;1.40;;;;;;;;;;105475;1259;60310;-50
2023/03/02 08:31:25;;;;;;;7.60;1.10;;;;;;;;;;104866;1266;61057;-50
2023/03/02 08:33:53;;;;;;;2.80;1.00;;;;;;;;;;106781;1254;59337;-50
2023/03/02 08:36:21;;;;;;;3.30;1.00;;;;;;;;;;108543;1254;60470;-52
2023/03/02 08:38:49;;;;;;;6.10;2.10;;;;;;;;;;105128;1267;61050;-51
2023/03/02 08:41:18;;;;;;;5.80;1.60;;;;;;;;;;105851;1263;60374;-51
2023/03/02 08:43:46;;;;;;;5.50;1.80;;;;;;;;;;106602;1259;61919;-50
2023/03/02 08:46:16;;;;;;;3.80;1.00;;;;;;;;;;104863;1260;61887;-51
2023/03/02 08:48:44;;;;;;;8.30;2.10;;;;;;;;;;106524;1254;60692;-50
2023/03/02 08:51:13;;;;;;;6.00;1.50;;;;;;;;;;105144;1259;60276;-52
2023/03/02 08:53:41;;;;;;;4.80;1.30;;;;;;;;;;105377;1257;60476;-51
2023/03/02 08:56:18;;;;;;;6.10;1.20;;;;;;;;;;104959;1254;62268;-52
2023/03/02 08:58:50;;;;;;;5.40;1.80;;;;;;;;;;104770;1255;60399;-51
2023/03/02 09:01:19;;;;;;;9.10;2.30;;;;;;;;;;104640;1255;60803;-49
2023/03/02 09:03:48;;;;;;;5.00;2.30;;;;;;;;;;105547;1259;60958;-47
2023/03/02 09:06:15;;;;;;;16.60;7.40;;;;;;;;;;104942;1254;60399;-50
2023/03/02 09:08:43;;;;;;;12.80;4.90;;;;;;;;;;105633;1259;62029;-47
2023/03/02 09:11:14;;;;;;;9.50;2.80;;;;;;;;;;104995;1257;60537;-49
2023/03/02 09:13:44;;;;;;;4.30;0.90;;;;;;;;;;104870;1260;61164;-52
2023/03/02 09:16:13;;;;;;;6.00;0.80;;;;;;;;;;104984;1254;60341;-46
2023/03/02 09:18:41;;;;;;;2.60;0.90;;;;;;;;;;104830;1258;60768;-47
2023/03/02 09:21:09;;;;;;;2.40;1.00;;;;;;;;;;104839;1260;63931;-51
2023/03/02 09:23:36;;;;;;;4.40;0.90;;;;;;;;;;105414;1260;60427;-50
2023/03/02 09:26:04;;;;;;;5.00;1.00;;;;;;;;;;105684;1260;60712;-49
2023/03/02 09:28:32;;;;;;;6.50;0.90;;;;;;;;;;105452;1259;60534;-50
2023/03/02 09:31:01;;;;;;;3.90;0.90;;;;;;;;;;105077;1259;60527;-47
2023/03/02 09:33:29;;;;;;;1.90;0.80;;;;;;;;;;104962;1255;61912;-50
2023/03/02 09:35:57;;;;;;;2.80;0.80;;;;;;;;;;104881;1260;60436;-48
2023/03/02 09:38:26;;;;;;;4.90;1.10;;;;;;;;;;105783;1258;60786;-48
2023/03/02 09:40:54;;;;;;;2.20;0.90;;;;;;;;;;104747;1254;60344;-48
2023/03/02 09:43:41;;;;;;;3.50;0.80;;;;;;;;;;105694;1255;60426;-47
2023/03/02 09:46:12;;;;;;;1.50;0.70;;;;;;;;;;104766;1254;62107;-49
2023/03/02 09:48:48;;;;;;;2.50;0.60;;;;;;;;;;105453;1254;60348;-48
2023/03/02 09:51:26;;;;;;;2.50;0.70;;;;;;;;;;105028;1259;60912;-45
2023/03/02 09:53:54;;;;;;;3.00;0.70;;;;;;;;;;104908;1254;60477;-49
2023/03/02 09:56:23;;;;;;;1.40;0.70;;;;;;;;;;105035;1259;60341;-49
2023/03/02 09:58:57;;;;;;;4.10;0.90;;;;;;;;;;105482;1254;61885;-47
2023/03/02 10:01:33;;;;;;;4.80;0.90;;;;;;;;;;104868;1260;60571;-50
2023/03/02 10:04:05;;;;;;;3.70;0.90;;;;;;;;;;106866;1260;60638;-48
2023/03/02 10:06:33;;;;;;;2.00;0.80;;;;;;;;;;106048;1260;60560;-48
2023/03/02 10:09:01;;;;;;;5.50;1.10;;;;;;;;;;104797;1255;60525;-50
2023/03/02 10:11:36;;;;;;;7.50;2.10;;;;;;;;;;105634;1254;61832;-51
2023/03/02 10:14:16;;;;;;;3.80;0.90;;;;;;;;;;104772;1260;60440;-46
2023/03/02 10:16:48;;;;;;;2.10;0.70;;;;;;;;;;106713;1254;60624;-51
2023/03/02 10:19:32;;;;;;;2.20;0.90;;;;;;;;;;104580;1257;60264;-50
2023/03/02 10:22:08;;;;;;;4.00;1.50;;;;;;;;;;107507;1259;58830;-47
2023/03/02 10:24:43;;;;;;;1.80;1.00;;;;;;;;;;105163;1254;61169;-49
2023/03/02 10:27:23;;;;;;;2.40;1.20;;;;;;;;;;105094;1254;60483;-45
2023/03/02 10:29:54;;;;;;;2.30;1.10;;;;;;;;;;105177;1251;60361;-49
2023/03/02 10:32:22;;;;;;;2.60;0.80;;;;;;;;;;105095;1251;60508;-51
2023/03/02 10:34:51;;;;;;;3.30;1.00;;;;;;;;;;104916;1251;60411;-49
2023/03/02 10:37:21;;;;;;;1.80;0.70;;;;;;;;;;106896;1251;62272;-49
2023/03/02 10:39:50;;;;;;;3.50;1.00;;;;;;;;;;108912;1251;58541;-51
2023/03/02 10:42:22;;;;;;;4.70;1.00;;;;;;;;;;105875;1251;61889;-47
2023/03/02 10:44:51;;;;;;;2.20;0.90;;;;;;;;;;105051;1251;60477;-52
2023/03/02 10:47:21;;;;;;;4.40;0.90;;;;;;;;;;104877;1251;60561;-46
2023/03/02 10:49:49;;;;;;;3.20;0.90;;;;;;;;;;107905;1251;62057;-50
2023/03/02 10:52:18;;;;;;;1.10;0.80;;;;;;;;;;105157;1251;60530;-51
2023/03/02 10:54:46;;;;;;;1.60;0.80;;;;;;;;;;105136;1254;60936;-47
2023/03/02 10:57:33;;;;;;;2.00;0.80;;;;;;;;;;106447;1251;60508;-48
2023/03/02 11:00:12;;;;;;;1.70;0.80;;;;;;;;;;104920;1251;60405;-52
2023/03/02 11:03:13;;;;;;;2.60;0.80;;;;;;;;;;105282;1251;61009;-45
2023/03/02 11:05:44;;;;;;;1.90;1.00;;;;;;;;;;104821;1251;60517;-49
2023/03/02 11:08:19;;;;;;;2.90;1.60;;;;;;;;;;105140;1254;62464;-47
2023/03/02 11:10:54;;;;;;;6.00;1.10;;;;;;;;;;105183;1254;60536;-49
2023/03/02 11:13:32;;;;;;;2.10;1.00;;;;;;;;;;107570;1251;60147;-48
2023/03/02 11:16:00;;;;;;;2.20;1.00;;;;;;;;;;105098;1251;62135;-49
2023/03/02 11:18:36;;;;;;;1.60;0.70;;;;;;;;;;106976;1251;60438;-52
2023/03/02 11:21:09;;;;;;;1.30;0.80;;;;;;;;;;105113;1257;60498;-48
2023/03/02 11:23:56;;;;;;;2.50;0.70;;;;;;;;;;106393;1251;60332;-50
2023/03/02 11:26:28;;;;;;;3.90;1.60;;;;;;;;;;107053;1254;58454;-50
2023/03/02 11:29:02;;;;;;;3.00;1.00;;;;;;;;;;109135;1250;60821;-50
2023/03/02 11:31:33;;;;;;;1.90;0.80;;;;;;;;;;105308;1254;60427;-43
2023/03/02 11:34:19;;;;;;;1.50;0.70;;;;;;;;;;105596;1250;60478;-50
2023/03/02 11:36:55;;;;;;;2.30;0.90;;;;;;;;;;105176;1254;60623;-51
2023/03/02 11:39:55;;;;;;;2.90;0.70;;;;;;;;;;105174;1256;60376;-50
2023/03/02 11:42:24;;;;;;;1.40;0.70;;;;;;;;;;104862;1249;61724;-51
2023/03/02 11:44:54;;;;;;;4.50;0.70;;;;;;;;;;109368;1249;58543;-49
2023/03/02 11:47:21;;;;;;;5.30;0.80;;;;;;;;;;105132;1251;60870;-48
2023/03/02 11:49:53;;;;;;;2.90;0.80;;;;;;;;;;107959;1250;60710;-47
2023/03/02 11:52:25;;;;;;;1.80;0.90;;;;;;;;;;105041;1253;60479;-49
2023/03/02 11:54:56;;;;;;;3.60;0.60;;;;;;;;;;105331;1254;61344;-50
2023/03/02 11:57:27;;;;;;;1.80;0.80;;;;;;;;;;105213;1253;60355;-49
2023/03/02 11:59:55;;;;;;;2.10;0.70;;;;;;;;;;105210;1250;60858;-47
2023/03/02 12:02:23;;;;;;;1.10;0.60;;;;;;;;;;106007;1251;60583;-51
2023/03/02 12:05:05;;;;;;;1.10;0.40;;;;;;;;;;105908;1251;60368;-48
2023/03/02 12:07:33;;;;;;;1.10;0.40;;;;;;;;;;105398;1254;62213;-48
2023/03/02 12:10:04;;;;;;;1.20;0.60;;;;;;;;;;105350;1254;60297;-51
2023/03/02 12:12:42;;;;;;;1.20;0.50;;;;;;;;;;105145;1252;60943;-50
2023/03/02 12:15:29;;;;;;;2.40;0.90;;;;;;;;;;105136;1249;60537;-50
2023/03/02 12:17:57;;;;;;;3.60;0.80;;;;;;;;;;106431;1256;60572;-46
2023/03/02 12:20:26;;;;;;;3.10;0.70;;;;;;;;;;109226;1250;62512;-50
2023/03/02 12:23:04;;;;;;;2.00;0.60;;;;;;;;;;109277;1250;59527;-51
2023/03/02 12:25:37;;;;;;;1.70;0.50;;;;;;;;;;106331;1251;60868;-48
2023/03/02 12:28:05;;;;;;;1.80;0.70;;;;;;;;;;104870;1256;60426;-50
2023/03/02 12:30:33;;;;;;;1.60;0.70;;;;;;;;;;105089;1249;60289;-52
2023/03/02 12:33:02;;;;;;;2.30;0.70;;;;;;;;;;109057;1253;62217;-49
2023/03/02 12:35:31;;;;;;;1.20;0.50;;;;;;;;;;106579;1254;60500;-46
2023/03/02 12:38:20;;;;;;;2.50;0.70;;;;;;;;;;106561;1253;60952;-48
2023/03/02 12:41:07;;;;;;;1.80;0.70;;;;;;;;;;104992;1254;60543;-51
2023/03/02 12:43:41;;;;;;;1.30;0.60;;;;;;;;;;105052;1254;60434;-47
2023/03/02 12:46:15;;;;;;;1.50;0.50;;;;;;;;;;104834;1254;61231;-47
2023/03/02 12:48:48;;;;;;;0.90;0.50;;;;;;;;;;105014;1256;60519;-51
2023/03/02 12:51:20;;;;;;;1.00;0.50;;;;;;;;;;109182;1252;60520;-51
2023/03/02 12:53:48;;;;;;;1.00;0.50;;;;;;;;;;108893;1253;60546;-48
2023/03/02 12:56:25;;;;;;;0.80;0.40;;;;;;;;;;109069;1253;58998;-48
2023/03/02 12:58:53;;;;;;;1.00;0.50;;;;;;;;;;104949;1254;62332;-51
2023/03/02 13:01:22;;;;;;;1.80;0.60;;;;;;;;;;105113;1256;60885;-50
2023/03/02 13:03:51;;;;;;;1.30;0.60;;;;;;;;;;105178;1254;60808;-48
2023/03/02 13:06:20;;;;;;;1.20;0.60;;;;;;;;;;104971;1253;60533;-50
2023/03/02 13:08:49;;;;;;;1.50;0.70;;;;;;;;;;105077;1256;60466;-48
2023/03/02 13:11:29;;;;;;;1.20;0.60;;;;;;;;;;105533;1256;61850;-51
2023/03/02 13:14:02;;;;;;;1.90;0.70;;;;;;;;;;109176;1252;58415;-48
2023/03/02 13:16:31;;;;;;;1.00;0.50;;;;;;;;;;105849;1253;61127;-49
2023/03/02 13:19:14;;;;;;;1.20;0.60;;;;;;;;;;106164;1254;60482;-48
2023/03/02 13:21:42;;;;;;;5.60;0.40;;;;;;;;;;105477;1254;60431;-48
2023/03/02 13:24:19;;;;;;;1.80;0.50;;;;;;;;;;105121;1253;62024;-53
2023/03/02 13:26:53;;;;;;;0.30;0.20;;;;;;;;;;105093;1257;60961;-52
2023/03/02 13:29:24;;;;;;;0.30;0.30;;;;;;;;;;104923;1253;60711;-49
2023/03/02 13:31:52;;;;;;;0.70;0.30;;;;;;;;;;104884;1252;61323;-52
2023/03/02 13:34:23;;;;;;;0.40;0.20;;;;;;;;;;104977;1253;60370;-49
2023/03/02 13:36:51;;;;;;;0.50;0.30;;;;;;;;;;104849;1253;62121;-49
2023/03/02 13:39:20;;;;;;;2.90;0.50;;;;;;;;;;105019;1254;60781;-48
2023/03/02 13:41:57;;;;;;;0.60;0.40;;;;;;;;;;104931;1254;61755;-50
2023/03/02 13:44:27;;;;;;;2.30;0.50;;;;;;;;;;107045;1254;60548;-48
2023/03/02 13:46:55;;;;;;;0.50;0.40;;;;;;;;;;105188;1254;60440;-48
2023/03/02 13:49:36;;;;;;;1.70;0.40;;;;;;;;;;105077;1257;61952;-49
2023/03/02 13:52:03;;;;;;;;;;;;;;;;;;105533;1256;60437;-46
2023/03/02 13:54:35;;;;;;;0.90;0.40;;;;;;;;;;107598;1253;61263;-48
2023/03/02 13:57:04;;;;;;;0.60;0.40;;;;;;;;;;105243;1254;60481;-48
2023/03/02 13:59:35;;;;;;;0.90;0.50;;;;;;;;;;105230;1256;60433;-49
2023/03/02 14:02:10;;;;;;;1.70;0.40;;;;;;;;;;104688;1254;62215;-50
2023/03/02 14:04:38;;;;;;;;;;;;;;;;;;105215;1256;60498;-48
2023/03/02 14:07:06;;;;;;;1.10;0.50;;;;;;;;;;105625;1256;60746;-47
2023/03/02 14:09:34;;;;;;;0.90;0.50;;;;;;;;;;105472;1253;60546;-46
2023/03/02 14:12:03;;;;;;;1.20;0.50;;;;;;;;;;105936;1254;58983;-51
2023/03/02 14:14:32;;;;;;;3.50;0.60;;;;;;;;;;109057;1253;62990;-48
2023/03/02 14:17:00;;;;;;;2.60;0.60;;;;;;;;;;106853;1253;60380;-46
2023/03/02 14:19:29;;;;;;;0.70;0.50;;;;;;;;;;105324;1256;60408;-48
2023/03/02 14:21:57;;;;;;;0.70;0.40;;;;;;;;;;105029;1253;60529;-46
2023/03/02 14:24:26;;;;;;;1.00;0.60;;;;;;;;;;104963;1253;60524;-49
2023/03/02 14:26:54;;;;;;;1.30;0.60;;;;;;;;;;106528;1253;62617;-48
2023/03/02 14:29:25;;;;;;;1.40;0.70;;;;;;;;;;105012;1254;60937;-48
2023/03/02 14:31:53;;;;;;;0.50;0.40;;;;;;;;;;109142;1253;60754;-52
2023/03/02 14:34:21;;;;;;;0.90;0.50;;;;;;;;;;109175;1253;58533;-51
2023/03/02 14:36:51;;;;;;;1.00;0.50;;;;;;;;;;107692;1253;60434;-50
2023/03/02 14:39:31;;;;;;;0.90;0.60;;;;;;;;;;105184;1252;61990;-48
2023/03/02 14:41:59;;;;;;;1.00;0.60;;;;;;;;;;108952;1253;58989;-51
2023/03/02 14:44:34;;;;;;;1.70;1.00;;;;;;;;;;108996;1253;59911;-49
2023/03/02 14:47:02;;;;;;;2.30;0.90;;;;;;;;;;106946;1253;60536;-50
2023/03/02 14:49:30;;;;;;;1.40;1.00;;;;;;;;;;105054;1252;60551;-49
2023/03/02 14:52:00;;;;;;;1.00;0.60;;;;;;;;;;104960;1254;62385;-46